Terminal Aerodrome Forecast
Issued by NWS

Home | Current Version | Previous Version | Text Only | Print | Product List | Glossary On
Versions: 1 2 3 4 5 6 7 8 9 10 11 12 13 14 15 16 17 18 19 20 21 22 23
087
FTUS43 KBIS 110529
TAFDIK
TAF
KDIK 110529Z 1106/1206 10008KT 3SM -SN OVC035
     FM110700 09007KT 6SM -SN OVC025
     FM110800 05005KT P6SM VCSH OVC030
     FM111200 31007KT P6SM OVC015
     FM112000 27009KT P6SM BKN035
     FM112200 26007KT P6SM BKN090=

USA.gov is the U.S. government's official web portal to all federal, state and local government web resources and services.